createdAt,value
2023-01-17T00:02:13.513Z,41.90
2023-01-17T00:07:14.944Z,42.00
2023-01-17T00:12:16.346Z,41.90
2023-01-17T00:17:17.753Z,41.90
2023-01-17T00:22:19.186Z,41.90
2023-01-17T00:27:20.593Z,42.60
2023-01-17T00:32:22.007Z,41.90
2023-01-17T00:37:23.424Z,41.90
2023-01-17T00:42:24.824Z,41.90
2023-01-17T00:47:26.231Z,41.80
2023-01-17T00:52:27.626Z,41.90
2023-01-17T00:57:29.028Z,41.90
2023-01-17T01:02:30.563Z,41.90
2023-01-17T01:07:32.015Z,41.90
2023-01-17T01:12:33.411Z,41.80
2023-01-17T01:17:34.815Z,41.90
2023-01-17T01:22:36.260Z,41.90
2023-01-17T01:27:37.871Z,41.80
2023-01-17T01:32:39.310Z,41.80
2023-01-17T01:37:40.714Z,41.80
2023-01-17T01:42:42.104Z,41.90
2023-01-17T01:47:43.527Z,41.90
2023-01-17T01:52:44.948Z,41.90
2023-01-17T01:57:46.351Z,41.90
2023-01-17T02:02:47.755Z,41.80
2023-01-17T02:07:49.210Z,41.80
2023-01-17T02:12:50.613Z,41.90
2023-01-17T02:17:52.027Z,41.90
2023-01-17T02:22:53.443Z,41.80
2023-01-17T02:27:54.840Z,41.80
2023-01-17T02:32:56.238Z,41.90
2023-01-17T02:37:57.648Z,41.90
2023-01-17T02:42:59.047Z,41.80
2023-01-17T02:48:00.444Z,41.90
2023-01-17T02:53:01.854Z,41.90
2023-01-17T02:58:03.280Z,41.80
2023-01-17T03:03:04.695Z,41.90
2023-01-17T03:08:06.098Z,41.80
2023-01-17T03:13:07.519Z,41.80
2023-01-17T03:18:08.917Z,41.80
2023-01-17T03:23:10.324Z,41.90
2023-01-17T03:28:11.726Z,41.80
2023-01-17T03:33:13.212Z,42.00
2023-01-17T03:38:14.646Z,42.10
2023-01-17T03:43:16.049Z,42.00
2023-01-17T03:48:17.515Z,41.90
2023-01-17T03:53:18.927Z,41.70
2023-01-17T03:58:20.327Z,41.50
2023-01-17T04:03:21.724Z,41.20
2023-01-17T04:08:23.144Z,41.10
2023-01-17T04:13:24.548Z,41.00
2023-01-17T04:18:25.948Z,40.90
2023-01-17T04:23:27.358Z,41.00
2023-01-17T04:28:28.753Z,40.90
2023-01-17T04:33:30.140Z,40.90
2023-01-17T04:38:31.543Z,41.00
2023-01-17T04:43:32.951Z,41.10
2023-01-17T04:48:34.376Z,41.20
2023-01-17T04:53:35.779Z,41.30
2023-01-17T04:58:37.229Z,41.30
2023-01-17T05:03:38.631Z,41.30
2023-01-17T05:08:40.040Z,41.30
2023-01-17T05:13:41.445Z,41.40
2023-01-17T05:18:42.850Z,41.40
2023-01-17T05:23:44.265Z,41.40
2023-01-17T05:28:45.667Z,41.40
2023-01-17T05:33:47.064Z,41.50
2023-01-17T05:38:48.457Z,41.60
2023-01-17T05:43:49.856Z,41.60
2023-01-17T05:48:51.255Z,41.60
2023-01-17T05:53:52.691Z,41.60
2023-01-17T05:58:54.096Z,41.60
2023-01-17T06:03:55.486Z,41.60
2023-01-17T06:08:56.881Z,41.60
2023-01-17T06:13:58.327Z,41.60
2023-01-17T06:19:00.891Z,41.60
2023-01-17T06:24:04.059Z,41.60
2023-01-17T06:29:05.739Z,41.60
2023-01-17T06:34:07.922Z,41.60
2023-01-17T06:39:09.989Z,41.60
2023-01-17T06:44:11.395Z,41.60
2023-01-17T06:49:12.795Z,41.60
2023-01-17T06:54:14.197Z,41.60
2023-01-17T06:59:15.619Z,41.60
2023-01-17T07:04:17.056Z,41.60
2023-01-17T07:09:18.454Z,41.60
2023-01-17T07:14:19.855Z,41.60
2023-01-17T07:19:21.283Z,41.60
2023-01-17T07:24:22.691Z,41.60
2023-01-17T07:29:24.084Z,41.60
2023-01-17T07:34:25.798Z,41.60
2023-01-17T07:39:27.203Z,41.60
2023-01-17T07:44:28.593Z,41.60
2023-01-17T07:49:29.999Z,41.60
2023-01-17T07:54:31.403Z,41.60
2023-01-17T07:59:32.818Z,41.60
2023-01-17T08:04:34.225Z,41.60
2023-01-17T08:09:35.673Z,41.60
2023-01-17T08:14:37.133Z,41.60
2023-01-17T08:19:38.579Z,41.60
2023-01-17T08:24:39.976Z,41.60
2023-01-17T08:29:41.380Z,41.60
2023-01-17T08:34:43.059Z,41.50
2023-01-17T08:39:44.466Z,41.50
2023-01-17T08:44:46.094Z,42.20
2023-01-17T08:49:47.501Z,41.80
2023-01-17T08:54:48.903Z,41.50
2023-01-17T08:59:50.302Z,41.50
2023-01-17T09:04:51.791Z,41.60
2023-01-17T09:09:53.195Z,41.60
2023-01-17T09:14:54.596Z,41.60
2023-01-17T09:19:56.005Z,41.60
2023-01-17T09:24:57.418Z,41.60
2023-01-17T09:29:58.961Z,41.60
2023-01-17T09:35:00.437Z,41.60
2023-01-17T09:40:01.907Z,41.60
2023-01-17T09:45:03.298Z,41.60
2023-01-17T09:50:04.695Z,41.50
2023-01-17T09:55:08.093Z,41.60
2023-01-17T10:00:09.847Z,41.60
2023-01-17T10:05:11.358Z,41.60
2023-01-17T10:10:12.826Z,41.50
2023-01-17T10:15:14.232Z,41.50
2023-01-17T10:20:15.645Z,41.50
2023-01-17T10:25:17.062Z,41.50
2023-01-17T10:30:18.496Z,41.50
2023-01-17T10:35:19.896Z,41.50
2023-01-17T10:40:21.333Z,41.50
2023-01-17T10:45:22.735Z,41.60
2023-01-17T10:50:24.229Z,41.60
2023-01-17T10:55:25.648Z,41.70
2023-01-17T11:00:27.052Z,41.70
2023-01-17T11:05:28.462Z,41.50
2023-01-17T11:10:29.902Z,41.40
2023-01-17T11:15:31.362Z,41.00
2023-01-17T11:20:32.805Z,40.90
2023-01-17T11:25:34.221Z,40.80
2023-01-17T11:30:35.652Z,40.70
2023-01-17T11:35:37.089Z,40.70
2023-01-17T11:40:38.523Z,40.60
2023-01-17T11:45:39.953Z,40.60
2023-01-17T11:50:41.393Z,40.60
2023-01-17T11:55:42.823Z,40.60
2023-01-17T12:00:44.218Z,40.60
2023-01-17T12:05:45.640Z,40.60
2023-01-17T12:10:47.050Z,40.60
2023-01-17T12:15:48.520Z,40.60
2023-01-17T12:20:49.957Z,40.60
2023-01-17T12:25:51.361Z,40.60
2023-01-17T12:30:52.890Z,40.60
2023-01-17T12:35:54.347Z,40.60
2023-01-17T12:40:55.763Z,40.60
2023-01-17T12:45:57.187Z,40.60
2023-01-17T12:50:58.594Z,40.60
2023-01-17T12:56:00.018Z,40.60
2023-01-17T13:01:01.587Z,40.60
2023-01-17T13:06:03.155Z,40.60
2023-01-17T13:11:04.590Z,40.60
2023-01-17T13:16:06.030Z,40.60
2023-01-17T13:21:07.454Z,40.60
2023-01-17T13:26:08.862Z,40.60
2023-01-17T13:31:10.299Z,40.60
2023-01-17T13:36:11.717Z,40.70
2023-01-17T13:41:13.129Z,40.60
2023-01-17T13:46:14.536Z,40.60
2023-01-17T13:51:15.960Z,40.60
2023-01-17T13:56:17.404Z,40.60
2023-01-17T14:01:19.047Z,40.60
2023-01-17T14:06:20.621Z,40.60
2023-01-17T14:11:22.030Z,40.60
2023-01-17T14:16:23.473Z,40.60
2023-01-17T14:21:24.901Z,40.60
2023-01-17T14:26:26.295Z,40.50
2023-01-17T14:31:27.753Z,40.60
2023-01-17T14:36:29.252Z,40.50
2023-01-17T14:41:30.662Z,41.20
2023-01-17T14:46:32.217Z,40.60
2023-01-17T14:51:33.622Z,40.60
2023-01-17T14:56:35.029Z,40.60
2023-01-17T15:01:36.537Z,40.60
2023-01-17T15:06:38.010Z,40.60
2023-01-17T15:11:39.422Z,40.50
2023-01-17T15:16:40.879Z,40.50
2023-01-17T15:21:42.336Z,40.50
2023-01-17T15:26:43.753Z,40.50
2023-01-17T15:31:45.237Z,40.50
2023-01-17T15:36:46.657Z,40.50
2023-01-17T15:41:48.090Z,40.50
2023-01-17T15:46:49.506Z,40.50
2023-01-17T15:51:50.920Z,40.50
2023-01-17T15:56:52.342Z,40.50
2023-01-17T16:01:53.812Z,40.50
2023-01-17T16:06:55.286Z,40.50
2023-01-17T16:11:56.685Z,40.50
2023-01-17T16:16:58.156Z,40.50
2023-01-17T16:21:59.558Z,40.50
2023-01-17T16:27:00.944Z,40.40
2023-01-17T16:32:02.349Z,40.40
2023-01-17T16:37:03.748Z,40.50
2023-01-17T16:42:05.163Z,40.50
2023-01-17T16:47:06.566Z,40.50
2023-01-17T16:52:07.977Z,40.50
2023-01-17T16:57:09.376Z,41.10
2023-01-17T17:02:10.843Z,40.40
2023-01-17T17:07:12.272Z,40.40
2023-01-17T17:12:13.689Z,40.40
2023-01-17T17:17:15.112Z,40.40
2023-01-17T17:22:16.519Z,40.40
2023-01-17T17:27:17.919Z,40.40
2023-01-17T17:32:19.687Z,40.40
2023-01-17T17:37:21.100Z,40.30
2023-01-17T17:42:22.524Z,40.30
2023-01-17T17:47:23.934Z,40.30
2023-01-17T17:52:25.353Z,40.30
2023-01-17T17:57:26.787Z,40.30
2023-01-17T18:02:28.192Z,40.30
2023-01-17T18:07:29.608Z,40.40
2023-01-17T18:12:31.016Z,40.40
2023-01-17T18:17:32.448Z,40.40
2023-01-17T18:22:33.853Z,40.30
2023-01-17T18:27:35.264Z,40.30
2023-01-17T18:32:36.690Z,40.30
2023-01-17T18:37:38.134Z,40.30
2023-01-17T18:42:39.909Z,40.30
2023-01-17T18:47:41.310Z,40.30
2023-01-17T18:52:42.732Z,40.20
2023-01-17T18:57:44.129Z,40.20
2023-01-17T19:02:45.519Z,40.20
2023-01-17T19:07:46.914Z,40.10
2023-01-17T19:12:48.309Z,40.20
2023-01-17T19:17:49.715Z,40.20
2023-01-17T19:22:51.118Z,40.20
2023-01-17T19:27:52.543Z,40.20
2023-01-17T19:32:53.967Z,40.20
2023-01-17T19:37:55.607Z,40.20
2023-01-17T19:42:57.149Z,40.20
2023-01-17T19:47:58.596Z,40.20
2023-01-17T19:53:00.063Z,40.20
2023-01-17T19:58:01.486Z,40.20
2023-01-17T20:03:02.999Z,40.20
2023-01-17T20:08:04.424Z,40.10
2023-01-17T20:13:05.841Z,40.10
2023-01-17T20:18:07.257Z,40.10
2023-01-17T20:23:08.688Z,40.10
2023-01-17T20:28:10.089Z,40.10
2023-01-17T20:33:11.493Z,40.10
2023-01-17T20:38:12.890Z,40.10
2023-01-17T20:43:14.291Z,40.10
2023-01-17T20:48:15.684Z,40.00
2023-01-17T20:53:17.096Z,40.00
2023-01-17T20:58:18.510Z,40.10
2023-01-17T21:03:19.917Z,40.00
2023-01-17T21:08:21.362Z,39.90
2023-01-17T21:13:22.760Z,40.00
2023-01-17T21:18:24.165Z,39.90
2023-01-17T21:23:25.574Z,40.00
2023-01-17T21:28:26.983Z,40.60
2023-01-17T21:33:28.384Z,40.00
2023-01-17T21:38:29.780Z,39.90
2023-01-17T21:43:31.185Z,40.00
2023-01-17T21:48:32.580Z,40.00
2023-01-17T21:53:33.981Z,39.90
2023-01-17T21:58:35.382Z,39.90
2023-01-17T22:03:36.834Z,39.90
2023-01-17T22:08:38.254Z,39.90
2023-01-17T22:13:39.690Z,39.90
2023-01-17T22:18:41.111Z,40.00
2023-01-17T22:23:42.510Z,40.00
2023-01-17T22:28:43.917Z,39.90
2023-01-17T22:33:45.345Z,39.90
2023-01-17T22:38:46.785Z,39.90
2023-01-17T22:43:48.194Z,40.10
2023-01-17T22:48:49.604Z,40.00
2023-01-17T22:53:51.353Z,40.00
2023-01-17T22:58:52.756Z,39.90
2023-01-17T23:03:54.194Z,39.90
2023-01-17T23:08:55.602Z,39.80
2023-01-17T23:13:57.012Z,39.80
2023-01-17T23:18:58.433Z,39.80
2023-01-17T23:23:59.863Z,39.70
2023-01-17T23:29:01.255Z,39.70
2023-01-17T23:34:02.655Z,39.70
2023-01-17T23:39:04.064Z,40.30
2023-01-17T23:44:05.503Z,39.70
2023-01-17T23:49:06.915Z,39.70
2023-01-17T23:54:08.311Z,39.70
2023-01-17T23:59:09.716Z,39.70
